createdAt,value
2023-03-06T00:00:35.724Z,0.11
2023-03-06T00:03:38.941Z,0.13
2023-03-06T00:06:43.578Z,0.13
2023-03-06T00:09:46.732Z,0.14
2023-03-06T00:12:51.919Z,0.11
2023-03-06T00:15:55.329Z,0.06
2023-03-06T00:18:58.528Z,0.07
2023-03-06T00:22:03.352Z,-0.02
2023-03-06T00:25:08.408Z,0.03
2023-03-06T00:28:12.487Z,0.04
2023-03-06T00:31:16.139Z,0.38
2023-03-06T00:34:19.344Z,0.26
2023-03-06T00:37:25.652Z,0.30
2023-03-06T00:40:28.938Z,0.12
2023-03-06T00:43:32.118Z,0.01
2023-03-06T00:46:35.325Z,0.03
2023-03-06T00:49:39.028Z,-0.03
2023-03-06T00:52:43.703Z,0.11
2023-03-06T00:55:47.161Z,0.00
2023-03-06T00:59:04.124Z,0.07
2023-03-06T01:02:08.227Z,0.02
2023-03-06T01:05:13.836Z,-0.07
2023-03-06T01:08:16.983Z,0.08
2023-03-06T01:11:20.086Z,0.05
2023-03-06T01:14:24.867Z,0.09
2023-03-06T01:17:28.604Z,0.13
2023-03-06T01:20:31.927Z,0.05
2023-03-06T01:23:35.312Z,0.05
2023-03-06T01:26:38.452Z,0.05
2023-03-06T01:29:42.910Z,0.06
2023-03-06T01:32:48.089Z,0.03
2023-03-06T01:35:51.194Z,0.01
2023-03-06T01:38:54.398Z,-0.01
2023-03-06T01:41:57.639Z,0.04
2023-03-06T01:45:07.414Z,0.15
2023-03-06T01:48:11.405Z,0.14
2023-03-06T01:51:15.240Z,-0.06
2023-03-06T01:54:22.294Z,0.14
2023-03-06T01:57:30.824Z,-0.08
2023-03-06T02:00:35.637Z,0.12
2023-03-06T02:03:40.685Z,-0.09
2023-03-06T02:06:44.205Z,-0.15
2023-03-06T02:09:47.527Z,0.06
2023-03-06T02:12:52.708Z,0.07
2023-03-06T02:15:57.638Z,-0.04
2023-03-06T02:19:03.152Z,0.17
2023-03-06T02:22:07.129Z,0.25
2023-03-06T02:25:16.565Z,-0.04
2023-03-06T02:28:24.018Z,-0.48
2023-03-06T02:31:29.673Z,-0.02
2023-03-06T02:34:51.638Z,-0.12
2023-03-06T02:37:57.071Z,0.12
2023-03-06T02:41:02.636Z,-0.09
2023-03-06T02:44:08.210Z,0.36
2023-03-06T02:47:11.804Z,-0.03
2023-03-06T02:50:15.018Z,-0.10
2023-03-06T02:53:21.006Z,-0.19
2023-03-06T02:56:24.493Z,-0.19
2023-03-06T02:59:29.382Z,-0.03
2023-03-06T03:02:33.404Z,-0.12
2023-03-06T03:05:36.946Z,-0.26
2023-03-06T03:08:47.838Z,0.36
2023-03-06T03:11:51.042Z,0.08
2023-03-06T03:14:56.304Z,0.21
2023-03-06T03:17:59.454Z,0.36
2023-03-06T03:21:03.012Z,-0.02
2023-03-06T03:24:06.670Z,0.30
2023-03-06T03:27:10.156Z,0.14
2023-03-06T03:30:15.451Z,-0.06
2023-03-06T03:33:18.710Z,-0.13
2023-03-06T03:36:22.421Z,-0.80
2023-03-06T03:39:25.814Z,0.18
2023-03-06T03:42:29.052Z,-0.26
2023-03-06T03:45:33.675Z,-0.37
2023-03-06T03:48:36.864Z,-0.26
2023-03-06T03:51:41.652Z,-0.27
2023-03-06T03:54:45.113Z,-0.44
2023-03-06T03:57:48.324Z,-0.43
2023-03-06T04:00:53.442Z,-0.24
2023-03-06T04:03:56.571Z,-0.29
2023-03-06T04:07:00.570Z,-0.02
2023-03-06T04:10:03.744Z,-0.16
2023-03-06T04:13:09.955Z,-0.30
2023-03-06T04:16:19.370Z,0.60
2023-03-06T04:19:22.691Z,0.30
2023-03-06T04:22:26.464Z,0.24
2023-03-06T04:25:29.734Z,-0.45
2023-03-06T04:28:34.550Z,-0.57
2023-03-06T04:34:24.286Z,-0.52
2023-03-06T04:37:28.208Z,-0.47
2023-03-06T04:40:34.333Z,-0.53
2023-03-06T04:43:39.455Z,-0.61
2023-03-06T04:46:42.710Z,-0.41
2023-03-06T04:49:47.431Z,-0.52
2023-03-06T04:52:50.974Z,-0.52
2023-03-06T04:55:54.056Z,-0.50
2023-03-06T04:58:57.358Z,-0.41
2023-03-06T05:02:00.446Z,-0.64
2023-03-06T05:05:06.005Z,-0.50
2023-03-06T05:08:13.518Z,-0.41
2023-03-06T05:11:16.801Z,-0.04
2023-03-06T05:14:20.255Z,-0.26
2023-03-06T05:17:23.778Z,-0.43
2023-03-06T05:20:28.623Z,-0.18
2023-03-06T05:23:34.856Z,-0.45
2023-03-06T05:26:37.993Z,-0.50
2023-03-06T05:29:41.195Z,-1.23
2023-03-06T05:32:44.729Z,-0.56
2023-03-06T05:35:50.249Z,-0.70
2023-03-06T05:38:53.726Z,-0.52
2023-03-06T05:41:56.873Z,-0.52
2023-03-06T05:45:00.039Z,-0.47
2023-03-06T05:48:03.265Z,-0.51
2023-03-06T05:51:07.889Z,-0.38
2023-03-06T05:54:11.066Z,-0.44
2023-03-06T05:57:14.298Z,-0.56
2023-03-06T06:00:19.569Z,0.07
2023-03-06T06:03:23.345Z,-0.50
2023-03-06T06:06:28.252Z,-0.38
2023-03-06T06:09:31.618Z,-0.51
2023-03-06T06:12:34.926Z,-0.46
2023-03-06T06:15:39.031Z,-0.20
2023-03-06T06:18:42.505Z,-0.38
2023-03-06T06:21:49.391Z,-0.40
2023-03-06T06:24:52.570Z,-0.46
2023-03-06T06:27:56.913Z,-0.45
2023-03-06T06:31:00.525Z,-0.36
2023-03-06T06:34:04.440Z,-0.27
2023-03-06T06:37:08.893Z,-0.01
2023-03-06T06:40:13.154Z,-0.24
2023-03-06T06:43:16.302Z,-0.35
2023-03-06T06:47:05.847Z,-0.28
2023-03-06T06:49:43.508Z,-0.09
2023-03-06T06:52:48.345Z,0.00
2023-03-06T06:56:05.856Z,-0.05
2023-03-06T06:59:16.425Z,0.09
2023-03-06T07:02:20.571Z,0.07
2023-03-06T07:05:23.819Z,0.13
2023-03-06T07:08:27.050Z,0.56
2023-03-06T07:11:32.562Z,0.33
2023-03-06T07:14:35.741Z,0.24
2023-03-06T07:17:38.924Z,0.30
2023-03-06T07:20:42.316Z,0.62
2023-03-06T07:23:45.510Z,0.49
2023-03-06T07:26:50.181Z,0.68
2023-03-06T07:29:53.637Z,0.57
2023-03-06T07:32:57.926Z,0.43
2023-03-06T07:36:01.095Z,0.86
2023-03-06T07:39:04.634Z,0.89
2023-03-06T07:42:10.259Z,1.05
2023-03-06T07:45:22.559Z,1.13
2023-03-06T07:48:25.771Z,1.25
2023-03-06T07:51:29.108Z,1.17
2023-03-06T07:54:32.625Z,1.18
2023-03-06T07:57:37.348Z,0.92
2023-03-06T08:00:40.616Z,1.25
2023-03-06T08:03:45.032Z,0.89
2023-03-06T08:06:48.294Z,1.35
2023-03-06T08:09:52.122Z,1.37
2023-03-06T08:12:56.656Z,1.40
2023-03-06T08:16:00.769Z,1.54
2023-03-06T08:19:03.941Z,1.53
2023-03-06T08:22:07.788Z,1.62
2023-03-06T08:25:13.175Z,1.61
2023-03-06T08:28:17.700Z,1.65
2023-03-06T08:31:27.495Z,1.79
2023-03-06T08:34:31.762Z,1.75
2023-03-06T08:37:35.099Z,1.98
2023-03-06T08:40:38.314Z,2.06
2023-03-06T08:43:43.074Z,1.90
2023-03-06T08:46:46.313Z,1.97
2023-03-06T08:49:49.588Z,2.10
2023-03-06T08:52:52.710Z,2.23
2023-03-06T08:55:55.857Z,2.19
2023-03-06T08:59:02.771Z,2.05
2023-03-06T09:02:07.572Z,2.19
2023-03-06T09:05:11.453Z,2.41
2023-03-06T09:08:14.684Z,2.19
2023-03-06T09:11:17.880Z,2.42
2023-03-06T09:14:22.606Z,2.47
2023-03-06T09:17:26.562Z,2.56
2023-03-06T09:20:29.945Z,2.76
2023-03-06T09:23:35.942Z,2.61
2023-03-06T09:26:46.066Z,2.38
2023-03-06T09:29:51.771Z,2.54
2023-03-06T09:32:54.928Z,2.65
2023-03-06T09:35:58.533Z,2.73
2023-03-06T09:39:01.758Z,2.77
2023-03-06T09:42:08.375Z,2.72
2023-03-06T09:45:14.312Z,2.58
2023-03-06T09:48:21.643Z,2.82
2023-03-06T09:51:37.015Z,2.80
2023-03-06T09:54:46.052Z,2.84
2023-03-06T09:57:56.436Z,2.92
2023-03-06T10:01:05.689Z,2.87
2023-03-06T10:04:23.276Z,3.02
2023-03-06T10:07:34.399Z,2.97
2023-03-06T10:10:45.269Z,2.80
2023-03-06T10:13:51.522Z,2.74
2023-03-06T10:16:57.013Z,2.74
2023-03-06T10:20:00.239Z,2.73
2023-03-06T10:23:15.205Z,2.92
2023-03-06T10:26:24.037Z,2.86
2023-03-06T10:29:56.383Z,2.99
2023-03-06T10:34:29.640Z,3.20
2023-03-06T10:37:32.827Z,3.20
2023-03-06T10:40:42.383Z,3.09
2023-03-06T10:43:46.935Z,3.09
2023-03-06T10:46:52.535Z,3.13
2023-03-06T10:50:02.533Z,3.50
2023-03-06T10:53:08.370Z,3.58
2023-03-06T10:56:11.456Z,3.39
2023-03-06T10:59:17.120Z,3.21
2023-03-06T11:02:32.338Z,2.99
2023-03-06T11:05:36.945Z,3.12
2023-03-06T11:08:42.388Z,3.23
2023-03-06T11:11:45.693Z,2.89
2023-03-06T11:14:48.884Z,3.18
2023-03-06T11:17:55.190Z,2.93
2023-03-06T11:20:59.744Z,3.03
2023-03-06T11:24:06.869Z,3.09
2023-03-06T11:27:26.403Z,3.25
2023-03-06T11:30:38.638Z,3.17
2023-03-06T11:33:48.419Z,3.14
2023-03-06T11:36:56.146Z,3.10
2023-03-06T11:40:07.610Z,3.19
2023-03-06T11:43:23.278Z,2.90
2023-03-06T11:46:31.961Z,3.17
2023-03-06T11:49:42.383Z,3.29
2023-03-06T11:52:52.302Z,3.20
2023-03-06T11:56:03.443Z,3.20
2023-03-06T11:59:42.841Z,3.12
2023-03-06T12:03:17.816Z,3.13
2023-03-06T12:06:33.017Z,3.15
2023-03-06T12:09:47.234Z,3.38
2023-03-06T12:13:32.684Z,3.22
2023-03-06T12:17:14.356Z,3.28
2023-03-06T12:20:29.866Z,3.31
2023-03-06T12:23:51.662Z,3.36
2023-03-06T12:27:18.259Z,3.44
2023-03-06T12:30:44.428Z,3.43
2023-03-06T12:33:58.394Z,3.45
2023-03-06T12:37:10.679Z,3.64
2023-03-06T12:40:37.115Z,3.72
2023-03-06T12:44:16.318Z,3.75
2023-03-06T12:47:22.684Z,3.99
2023-03-06T12:50:27.903Z,3.87
2023-03-06T12:53:33.811Z,3.78
2023-03-06T12:56:36.950Z,3.67
2023-03-06T12:59:44.389Z,3.39
2023-03-06T13:03:13.828Z,3.65
2023-03-06T13:06:45.035Z,3.66
2023-03-06T13:10:08.901Z,3.69
2023-03-06T13:13:32.040Z,3.57
2023-03-06T13:16:36.817Z,3.47
2023-03-06T13:19:40.051Z,3.70
2023-03-06T13:22:44.890Z,3.88
2023-03-06T13:25:50.062Z,3.86
2023-03-06T13:28:54.442Z,3.76
2023-03-06T13:32:17.802Z,3.79
2023-03-06T13:35:50.153Z,3.72
2023-03-06T13:39:11.443Z,3.86
2023-03-06T13:42:27.602Z,3.83
2023-03-06T13:45:35.466Z,3.89
2023-03-06T13:48:45.540Z,3.82
2023-03-06T13:52:04.865Z,3.88
2023-03-06T13:55:20.493Z,3.89
2023-03-06T13:58:41.633Z,4.09
2023-03-06T14:01:57.803Z,3.91
2023-03-06T14:05:04.640Z,3.94
2023-03-06T14:08:11.104Z,4.15
2023-03-06T14:11:20.817Z,4.04
2023-03-06T14:14:35.748Z,3.83
2023-03-06T14:17:39.502Z,3.69
2023-03-06T14:20:45.969Z,3.80
2023-03-06T14:24:00.649Z,3.66
2023-03-06T14:27:04.632Z,3.43
2023-03-06T14:30:12.693Z,3.45
2023-03-06T14:33:27.052Z,3.34
2023-03-06T14:36:35.289Z,3.34
2023-03-06T14:39:41.163Z,3.30
2023-03-06T14:42:44.391Z,3.16
2023-03-06T14:45:53.330Z,3.20
2023-03-06T14:49:00.068Z,3.20
2023-03-06T14:52:04.824Z,3.27
2023-03-06T14:55:12.878Z,3.27
2023-03-06T14:58:18.017Z,3.35
2023-03-06T15:01:28.943Z,3.34
2023-03-06T15:04:39.904Z,2.98
2023-03-06T15:07:45.099Z,3.45
2023-03-06T15:10:58.265Z,3.39
2023-03-06T15:14:03.316Z,3.37
2023-03-06T15:17:16.739Z,3.76
2023-03-06T15:20:41.142Z,3.43
2023-03-06T15:23:47.914Z,3.17
2023-03-06T15:26:56.171Z,3.32
2023-03-06T15:30:12.315Z,3.29
2023-03-06T15:33:25.258Z,3.09
2023-03-06T15:36:30.848Z,3.10
2023-03-06T15:39:38.038Z,3.10
2023-03-06T15:42:43.295Z,2.91
2023-03-06T15:45:46.766Z,2.74
2023-03-06T15:48:54.496Z,2.96
2023-03-06T15:51:57.653Z,2.88
2023-03-06T15:55:03.203Z,2.62
2023-03-06T15:58:06.785Z,2.70
2023-03-06T16:01:16.898Z,2.69
2023-03-06T16:04:20.983Z,2.70
2023-03-06T16:07:24.370Z,2.44
2023-03-06T16:10:31.283Z,2.49
2023-03-06T16:13:34.766Z,2.38
2023-03-06T16:16:39.694Z,2.36
2023-03-06T16:19:43.369Z,2.29
2023-03-06T16:22:47.525Z,2.39
2023-03-06T16:25:52.156Z,2.29
2023-03-06T16:28:55.392Z,2.34
2023-03-06T16:34:24.573Z,2.32
2023-03-06T16:37:27.863Z,2.27
2023-03-06T16:40:37.472Z,2.21
2023-03-06T16:43:40.568Z,2.22
2023-03-06T16:46:46.900Z,2.19
2023-03-06T16:49:55.811Z,2.19
2023-03-06T16:52:59.928Z,2.08
2023-03-06T16:56:03.098Z,2.07
2023-03-06T16:59:06.658Z,2.05
2023-03-06T17:02:10.751Z,2.02
2023-03-06T17:05:15.874Z,1.86
2023-03-06T17:08:19.188Z,2.02
2023-03-06T17:11:22.363Z,1.98
2023-03-06T17:14:25.567Z,1.99
2023-03-06T17:17:29.407Z,1.86
2023-03-06T17:20:33.930Z,2.05
2023-03-06T17:23:38.199Z,1.88
2023-03-06T17:26:41.474Z,1.99
2023-03-06T17:29:46.131Z,1.94
2023-03-06T17:32:49.313Z,2.00
2023-03-06T17:36:00.239Z,1.91
2023-03-06T17:39:04.263Z,1.88
2023-03-06T17:42:08.711Z,1.87
2023-03-06T17:45:12.648Z,1.85
2023-03-06T17:48:15.869Z,1.98
2023-03-06T17:51:20.559Z,2.05
2023-03-06T17:54:26.015Z,1.92
2023-03-06T17:57:29.173Z,2.10
2023-03-06T18:00:32.355Z,1.97
2023-03-06T18:03:38.111Z,2.15
2023-03-06T18:06:43.393Z,2.03
2023-03-06T18:09:46.610Z,2.01
2023-03-06T18:12:49.780Z,2.05
2023-03-06T18:15:53.051Z,2.02
2023-03-06T18:18:57.641Z,1.95
2023-03-06T18:22:02.351Z,1.98
2023-03-06T18:25:09.190Z,1.89
2023-03-06T18:28:12.545Z,1.89
2023-03-06T18:31:17.095Z,1.84
2023-03-06T18:34:20.354Z,1.94
2023-03-06T18:37:24.919Z,1.86
2023-03-06T18:40:28.209Z,1.85
2023-03-06T18:43:31.510Z,1.86
2023-03-06T18:46:37.564Z,1.84
2023-03-06T18:49:42.561Z,1.93
2023-03-06T18:52:48.505Z,1.78
2023-03-06T18:55:53.568Z,1.79
2023-03-06T18:58:56.913Z,1.81
2023-03-06T19:02:00.364Z,1.91
2023-03-06T19:05:03.593Z,1.79
2023-03-06T19:08:08.195Z,1.81
2023-03-06T19:11:13.680Z,1.87
2023-03-06T19:14:17.264Z,1.68
2023-03-06T19:17:20.407Z,1.70
2023-03-06T19:20:24.298Z,1.64
2023-03-06T19:23:28.843Z,1.68
2023-03-06T19:26:32.496Z,1.63
2023-03-06T19:29:35.608Z,1.63
2023-03-06T19:32:38.925Z,1.63
2023-03-06T19:35:42.354Z,1.52
2023-03-06T19:38:50.274Z,1.52
2023-03-06T19:41:53.594Z,1.53
2023-03-06T19:44:56.778Z,1.54
2023-03-06T19:48:00.939Z,1.59
2023-03-06T19:51:05.168Z,1.40
2023-03-06T19:54:11.751Z,1.46
2023-03-06T19:57:15.172Z,1.41
2023-03-06T20:00:19.647Z,1.40
2023-03-06T20:03:22.898Z,1.33
2023-03-06T20:06:33.521Z,1.31
2023-03-06T20:09:38.572Z,1.31
2023-03-06T20:12:41.746Z,1.46
2023-03-06T20:15:44.909Z,1.43
2023-03-06T20:18:48.212Z,1.36
2023-03-06T20:21:51.465Z,1.37
2023-03-06T20:24:56.017Z,1.45
2023-03-06T20:27:59.281Z,1.41
2023-03-06T20:31:07.652Z,1.27
2023-03-06T20:34:11.900Z,1.39
2023-03-06T20:37:15.223Z,1.43
2023-03-06T20:40:20.098Z,1.36
2023-03-06T20:43:26.556Z,1.22
2023-03-06T20:46:30.217Z,1.21
2023-03-06T20:49:33.802Z,1.27
2023-03-06T20:52:36.946Z,1.33
2023-03-06T20:55:44.232Z,1.36
2023-03-06T20:58:47.411Z,1.38
2023-03-06T21:01:50.815Z,1.43
2023-03-06T21:04:54.059Z,1.26
2023-03-06T21:07:57.214Z,1.32
2023-03-06T21:11:01.731Z,1.26
2023-03-06T21:14:05.395Z,1.28
2023-03-06T21:17:08.651Z,1.16
2023-03-06T21:20:12.668Z,1.12
2023-03-06T21:23:15.970Z,1.23
2023-03-06T21:26:22.238Z,1.23
2023-03-06T21:29:25.488Z,1.34
2023-03-06T21:32:29.086Z,1.21
2023-03-06T21:35:32.287Z,1.23
2023-03-06T21:38:35.835Z,1.26
2023-03-06T21:41:41.755Z,1.15
2023-03-06T21:44:45.219Z,1.27
2023-03-06T21:47:48.922Z,1.21
2023-03-06T21:50:52.179Z,1.26
2023-03-06T21:53:55.852Z,1.03
2023-03-06T21:57:00.340Z,1.16
2023-03-06T22:00:04.763Z,1.16
2023-03-06T22:03:13.524Z,1.14
2023-03-06T22:06:18.799Z,1.03
2023-03-06T22:09:22.132Z,0.62
2023-03-06T22:12:27.134Z,1.15
2023-03-06T22:15:30.254Z,1.14
2023-03-06T22:18:34.360Z,1.07
2023-03-06T22:21:38.457Z,1.07
2023-03-06T22:24:41.657Z,1.17
2023-03-06T22:27:46.248Z,0.99
2023-03-06T22:34:23.827Z,0.97
2023-03-06T22:37:27.023Z,1.11
2023-03-06T22:40:30.195Z,1.10
2023-03-06T22:43:34.967Z,1.15
2023-03-06T22:46:39.410Z,0.97
2023-03-06T22:49:43.884Z,1.11
2023-03-06T22:52:47.204Z,1.03
2023-03-06T22:55:50.449Z,1.17
2023-03-06T22:58:53.598Z,1.04
2023-03-06T23:01:56.700Z,1.09
2023-03-06T23:05:01.199Z,1.13
2023-03-06T23:08:04.324Z,1.03
2023-03-06T23:11:10.132Z,1.08
2023-03-06T23:14:32.687Z,1.02
2023-03-06T23:17:55.100Z,1.03
2023-03-06T23:21:19.812Z,1.09
2023-03-06T23:24:41.490Z,0.93
2023-03-06T23:27:44.671Z,0.98
2023-03-06T23:30:48.180Z,1.13
2023-03-06T23:33:51.481Z,1.12
2023-03-06T23:36:56.231Z,1.02
2023-03-06T23:39:59.509Z,1.04
2023-03-06T23:43:03.691Z,1.12
2023-03-06T23:46:08.141Z,1.08
2023-03-06T23:49:11.367Z,1.09
2023-03-06T23:52:15.851Z,1.09
2023-03-06T23:55:19.190Z,1.06
2023-03-06T23:58:22.418Z,1.13
